KC0VVH Weather Reports


Display with metric or nautical units.
time (UTC)temp
F
wind
direction
speed
MPH
gust
MPH
rain 1hr
in
rain 24hr
in
rain mn
in
humidity
%
barometer
mb
20220705164503 84 93 1.0 4.0 0.00 0.00 0.00 36
20220705163603 83 85 2.0 6.0 0.00 0.00 0.00 38
20220705162704 82 71 4.0 11.0 0.00 0.00 0.00 39
20220705161804 83 65 6.0 11.0 0.00 0.00 0.00 38
20220705160903 82 69 5.0 11.0 0.00 0.00 0.00 39
20220705160012 82 60 5.0 12.0 0.00 0.00 0.00 40
20220705155403 81 63 7.0 13.0 0.00 0.00 0.00 41
20220705154503 81 62 6.0 13.0 0.00 0.00 0.00 43
20220705153603 80 57 4.0 10.0 0.00 0.00 0.00 44
20220705152704 79 61 5.0 9.0 0.00 0.00 0.00 45
20220705151803 79 49 5.0 9.0 0.00 0.00 0.00 46
20220705150903 78 68 6.0 11.0 0.00 0.00 0.00 44
20220705150003 80 103 3.0 10.0 0.00 0.00 0.00 45
20220705145404 79 155 2.0 6.0 0.00 0.00 0.00 45
20220705144504 78 74 1.0 4.0 0.00 0.00 0.00 47
20220705143603 76 74 1.0 5.0 0.00 0.00 0.00 49
20220705141804 76 147 1.0 5.0 0.00 0.00 0.00 46
20220705140903 76 128 1.0 3.0 0.00 0.00 0.00 44
20220705140003 75 109 0.0 1.0 0.00 0.00 0.00 44
20220705135403 75 109 0.0 1.0 0.00 0.00 0.00 44
20220705134504 75 109 0.0 3.0 0.00 0.00 0.00 45
20220705133603 75 109 1.0 4.0 0.00 0.00 0.00 44
20220705132704 74 109 0.0 2.0 0.00 0.00 0.00 44
20220705131803 74 109 1.0 7.0 0.00 0.00 0.00 45
20220705130903 74 0 0.0 0.0 0.00 0.00 0.00 45
20220705130003 74 109 0.0 1.0 0.00 0.00 0.00 45
20220705125403 73 109 0.0 3.0 0.00 0.00 0.00 44
20220705124503 74 109 1.0 4.0 0.00 0.00 0.00 44
20220705123604 74 109 0.0 2.0 0.00 0.00 0.00 43
20220705122703 75 109 0.0 2.0 0.00 0.00 0.00 41
20220705121803 75 109 1.0 3.0 0.00 0.00 0.00 41
20220705120903 75 75 2.0 6.0 0.00 0.00 0.00 41
20220705120004 76 299 0.0 2.0 0.00 0.00 0.00 39
20220705115403 77 299 0.0 3.0 0.00 0.00 0.00 38
20220705114504 77 299 0.0 1.0 0.00 0.00 0.00 37
20220705113603 77 269 1.0 4.0 0.00 0.00 0.00 37
20220705112703 78 185 2.0 7.0 0.00 0.00 0.00 37
20220705111803 77 198 2.0 7.0 0.00 0.00 0.00 37
20220705110903 76 269 0.0 2.0 0.00 0.00 0.00 37
20220705110003 76 269 0.0 3.0 0.00 0.00 0.00 37
20220705105403 76 269 1.0 3.0 0.00 0.00 0.00 38
20220705104503 76 283 1.0 3.0 0.00 0.00 0.00 39
20220705103604 75 315 0.0 3.0 0.00 0.00 0.00 39
20220705102704 75 315 0.0 3.0 0.00 0.00 0.00 39
20220705101803 75 313 0.0 3.0 0.00 0.00 0.00 39
20220705100003 76 317 3.0 8.0 0.00 0.00 0.00 37
20220705095403 77 320 3.0 8.0 0.00 0.00 0.00 36
20220705094504 79 313 3.0 8.0 0.00 0.00 0.00 33
20220705093603 82 200 4.0 11.0 0.00 0.00 0.00 32
20220705092703 82 198 6.0 14.0 0.00 0.00 0.00 32
20220705091803 82 209 9.0 19.0 0.00 0.00 0.00 32
20220705090903 82 204 7.0 14.0 0.00 0.00 0.00 32
20220705090003 82 207 8.0 22.0 0.00 0.00 0.00 31
20220705085403 82 213 9.0 22.0 0.00 0.00 0.00 30
20220705084504 81 194 5.0 14.0 0.00 0.00 0.00 30
20220705083603 81 173 4.0 18.0 0.00 0.00 0.00 29
20220705082703 82 176 8.0 16.0 0.00 0.00 0.00 29
20220705081804 82 188 6.0 12.0 0.00 0.00 0.00 28
20220705080903 83 197 7.0 14.0 0.00 0.00 0.00 28
20220705080004 83 205 6.0 12.0 0.00 0.00 0.00 27
20220705075403 83 210 7.0 12.0 0.00 0.00 0.00 27
20220705074503 82 221 6.0 11.0 0.00 0.00 0.00 28
20220705073603 82 226 6.0 11.0 0.00 0.00 0.00 28
20220705072703 82 232 5.0 11.0 0.00 0.00 0.00 28
20220705071803 80 239 6.0 12.0 0.00 0.00 0.00 30
20220705070004 76 264 2.0 6.0 0.00 0.00 0.00 39
20220705065403 76 263 2.0 6.0 0.00 0.00 0.00 38
20220705064503 77 262 4.0 7.0 0.00 0.00 0.00 37
20220705063603 78 255 3.0 7.0 0.00 0.00 0.00 37
20220705062703 80 250 2.0 4.0 0.00 0.00 0.00 35
20220705061803 81 250 3.0 5.0 0.00 0.00 0.00 31
20220705060903 82 250 1.0 3.0 0.00 0.00 0.00 29
20220705060005 83 250 2.0 8.0 0.00 0.10 0.00 27
20220705055404 84 250 2.0 8.0 0.00 0.10 0.10 26
20220705054504 84 250 2.0 8.0 0.00 0.10 0.10 26
20220705053603 84 249 2.0 12.0 0.00 0.10 0.10 25
20220705052703 84 245 3.0 9.0 0.00 0.10 0.10 25
20220705051803 84 241 4.0 9.0 0.00 0.10 0.10 25
20220705050904 84 224 2.0 6.0 0.00 0.10 0.10 25
20220705050004 84 79 3.0 9.0 0.00 0.10 0.10 25
20220705045404 84 70 3.0 9.0 0.00 0.10 0.10 25
20220705044503 84 68 2.0 5.0 0.00 0.10 0.10 26
20220705043603 84 68 2.0 6.0 0.00 0.10 0.10 26
20220705042704 84 68 2.0 6.0 0.00 0.10 0.10 25
20220705041803 84 68 1.0 4.0 0.00 0.10 0.10 25
20220705040904 84 68 1.0 4.0 0.00 0.10 0.10 24
20220705040004 84 68 1.0 4.0 0.00 0.10 0.10 24
20220705035403 84 68 2.0 4.0 0.00 0.10 0.10 24
20220705034504 83 68 1.0 3.0 0.00 0.10 0.10 25
20220705033603 83 68 0.0 3.0 0.00 0.10 0.10 27
20220705032703 83 68 0.0 2.0 0.00 0.10 0.10 27
20220705031804 84 68 0.0 1.0 0.00 0.10 0.10 27
20220705030004 84 68 1.0 3.0 0.00 0.10 0.10 27
20220705025403 84 68 1.0 3.0 0.00 0.10 0.10 27
20220705024503 85 68 0.0 1.0 0.00 0.10 0.10 28
20220705023603 85 0 0.0 0.0 0.00 0.10 0.10 28
20220705022703 86 68 0.0 1.0 0.00 0.10 0.10 29
20220705021803 87 68 0.0 1.0 0.00 0.10 0.10 28
20220705020904 88 68 0.0 1.0 0.00 0.10 0.10 26
20220705020003 89 68 0.0 1.0 0.00 0.10 0.10 25
20220705015403 90 68 0.0 1.0 0.00 0.10 0.10 24
20220705014503 89 68 0.0 1.0 0.00 0.10 0.10 24
20220705013603 89 68 0.0 2.0 0.00 0.10 0.10 24
20220705012704 89 68 0.0 3.0 0.00 0.10 0.10 25
20220705011803 89 68 0.0 2.0 0.00 0.10 0.10 24
20220705010903 88 68 0.0 2.0 0.00 0.10 0.10 24
20220705010003 89 68 0.0 1.0 0.00 0.10 0.10 24
20220705005403 89 68 1.0 4.0 0.00 0.10 0.10 24
20220705004504 89 68 1.0 5.0 0.00 0.10 0.10 24
20220705003603 90 68 3.0 6.0 0.00 0.10 0.10 23
20220705002703 90 68 3.0 6.0 0.00 0.10 0.10 23
20220705001803 91 68 2.0 8.0 0.00 0.10 0.10 22
20220705000903 92 68 3.0 9.0 0.00 0.10 0.10 22
20220705000003 92 69 4.0 8.0 0.00 0.10 0.10 22
20220704235403 92 70 2.0 9.0 0.00 0.10 0.10 22
20220704234503 92 71 1.0 5.0 0.00 0.10 0.10 22
20220704233603 92 71 1.0 3.0 0.00 0.10 0.10 22
20220704232703 92 71 1.0 6.0 0.00 0.10 0.10 22
20220704231803 91 71 2.0 6.0 0.00 0.10 0.10 23
20220704230904 91 71 3.0 6.0 0.00 0.10 0.10 23
20220704230003 91 71 3.0 8.0 0.00 0.10 0.10 23
20220704225404 91 71 2.0 6.0 0.00 0.10 0.10 23
20220704224504 90 72 3.0 9.0 0.00 0.10 0.10 24
20220704223603 90 73 3.0 8.0 0.00 0.10 0.10 25
20220704222704 90 74 3.0 9.0 0.00 0.10 0.10 24
20220704221804 91 74 2.0 7.0 0.00 0.10 0.10 23
20220704220903 90 74 2.0 8.0 0.00 0.10 0.10 24
20220704220003 90 58 3.0 6.0 0.00 0.10 0.10 23
20220704215404 90 58 4.0 10.0 0.00 0.10 0.10 24
20220704214503 90 60 3.0 7.0 0.00 0.10 0.10 24
20220704213604 90 52 4.0 11.0 0.00 0.10 0.10 25
20220704212703 90 42 3.0 7.0 0.00 0.10 0.10 24
20220704211803 91 49 4.0 10.0 0.00 0.10 0.10 24
20220704210903 91 54 3.0 10.0 0.00 0.10 0.10 24
20220704210003 90 57 4.0 7.0 0.00 0.10 0.10 24
20220704205403 91 58 3.0 9.0 0.00 0.10 0.10 24
20220704204503 89 59 1.0 4.0 0.00 0.10 0.10 26
20220704203606 88 59 3.0 9.0 0.00 0.10 0.10 26
20220704202704 88 62 3.0 11.0 0.00 0.10 0.10 26
20220704201803 89 69 3.0 9.0 0.00 0.10 0.10 26
20220704200904 89 69 4.0 11.0 0.00 0.10 0.10 25
20220704200003 90 69 4.0 11.0 0.00 0.10 0.10 25
20220704195404 90 61 5.0 9.0 0.00 0.10 0.10 25
20220704194503 89 65 5.0 12.0 0.00 0.10 0.10 26
20220704193603 89 57 3.0 12.0 0.00 0.10 0.10 26
20220704191803 88 42 1.0 5.0 0.00 0.10 0.10 27
20220704190903 88 35 3.0 6.0 0.00 0.10 0.10 27
20220704185403 88 34 2.0 6.0 0.00 0.10 0.10 29
20220704184503 86 34 3.0 6.0 0.00 0.10 0.10 32
20220704183603 86 41 2.0 6.0 0.00 0.10 0.10 31
20220704182703 85 45 3.0 6.0 0.00 0.10 0.10 33
20220704181803 85 44 2.0 5.0 0.00 0.10 0.10 33
20220704180903 85 44 3.0 6.0 0.00 0.10 0.10 31
20220704180003 85 42 1.0 4.0 0.00 0.10 0.10 32
20220704175404 84 42 1.0 4.0 0.00 0.10 0.10 33
20220704174503 83 42 1.0 4.0 0.00 0.10 0.10 35
20220704173603 84 34 2.0 6.0 0.00 0.10 0.10 33
20220704172704 84 326 1.0 3.0 0.00 0.10 0.10 35
20220704171803 83 325 0.0 4.0 0.00 0.10 0.10 34
20220704170904 83 295 1.0 4.0 0.00 0.10 0.10 35
20220704170003 83 233 1.0 3.0 0.00 0.10 0.10 36
20220704165403 83 232 1.0 2.0 0.00 0.10 0.10 35